createdAt,value
2018-04-23T00:00:10.621Z,23.47
2018-04-23T00:00:42.650Z,23.42
2018-04-23T00:01:14.693Z,23.42
2018-04-23T00:01:46.761Z,23.41
2018-04-23T00:02:18.768Z,23.45
2018-04-23T00:02:50.770Z,23.41
2018-04-23T00:03:22.860Z,23.42
2018-04-23T00:03:54.893Z,23.42
2018-04-23T00:04:26.866Z,23.41
2018-04-23T00:04:58.910Z,23.37
2018-04-23T00:05:31.030Z,23.38
2018-04-23T00:06:03.054Z,23.4
2018-04-23T00:06:35.062Z,23.32
2018-04-23T00:07:07.110Z,23.4
2018-04-23T00:07:39.251Z,23.42
2018-04-23T00:08:11.264Z,23.35
2018-04-23T00:08:43.259Z,23.4
2018-04-23T00:09:15.293Z,23.44
2018-04-23T00:09:47.290Z,23.35
2018-04-23T00:10:19.318Z,23.42
2018-04-23T00:10:51.408Z,23.44
2018-04-23T00:11:23.470Z,23.38
2018-04-23T00:11:55.471Z,23.35
2018-04-23T00:12:27.535Z,23.38
2018-04-23T00:12:59.552Z,23.41
2018-04-23T00:13:31.589Z,23.4
2018-04-23T00:14:03.572Z,23.35
2018-04-23T00:14:35.617Z,23.35
2018-04-23T00:15:07.631Z,23.4
2018-04-23T00:15:39.669Z,23.29
2018-04-23T00:16:11.664Z,23.4
2018-04-23T00:16:43.710Z,23.41
2018-04-23T00:17:15.767Z,23.4
2018-04-23T00:17:47.867Z,23.28
2018-04-23T00:18:19.914Z,23.37
2018-04-23T00:18:51.967Z,23.4
2018-04-23T00:19:24.000Z,23.34
2018-04-23T00:19:55.987Z,23.29
2018-04-23T00:20:28.020Z,23.21
2018-04-23T00:21:00.108Z,23.21
2018-04-23T00:21:32.112Z,23.25
2018-04-23T00:22:04.156Z,23.21
2018-04-23T00:22:36.300Z,23.21
2018-04-23T00:23:08.356Z,23.24
2018-04-23T00:23:40.403Z,23.21
2018-04-23T00:24:12.459Z,23.25
2018-04-23T00:24:44.503Z,23.22
2018-04-23T00:25:16.588Z,23.21
2018-04-23T00:25:48.628Z,23.28
2018-04-23T00:26:20.667Z,23.28
2018-04-23T00:26:52.678Z,23.24
2018-04-23T00:27:24.790Z,23.22
2018-04-23T00:27:56.842Z,23.24
2018-04-23T00:28:28.862Z,23.26
2018-04-23T00:29:00.969Z,23.25
2018-04-23T00:29:33.027Z,23.18
2018-04-23T00:30:05.107Z,23.25
2018-04-23T00:30:37.151Z,23.18
2018-04-23T00:31:09.178Z,23.16
2018-04-23T00:31:41.294Z,23.22
2018-04-23T00:32:14.129Z,23.21
2018-04-23T00:32:46.180Z,23.19
2018-04-23T00:33:18.219Z,23.25
2018-04-23T00:33:50.279Z,23.15
2018-04-23T00:34:22.415Z,23.22
2018-04-23T00:34:54.423Z,23.15
2018-04-23T00:35:26.514Z,23.22
2018-04-23T00:35:58.511Z,23.24
2018-04-23T00:36:30.513Z,23.25
2018-04-23T00:37:02.541Z,23.18
2018-04-23T00:37:34.573Z,23.18
2018-04-23T00:38:06.556Z,23.21
2018-04-23T00:38:38.609Z,23.18
2018-04-23T00:39:10.656Z,23.18
2018-04-23T00:39:42.702Z,23.06
2018-04-23T00:40:14.715Z,23.18
2018-04-23T00:40:46.740Z,23.09
2018-04-23T00:41:18.795Z,23.07
2018-04-23T00:41:50.910Z,23.14
2018-04-23T00:42:23.006Z,23.09
2018-04-23T00:42:55.078Z,23.14
2018-04-23T00:43:27.100Z,23.09
2018-04-23T00:43:59.116Z,23.1
2018-04-23T00:44:31.845Z,23.12
2018-04-23T00:45:03.942Z,23.09
2018-04-23T00:45:35.949Z,23.12
2018-04-23T00:46:08.014Z,23.1
2018-04-23T00:46:40.096Z,23.04
2018-04-23T00:47:12.138Z,23.1
2018-04-23T00:47:44.194Z,23.07
2018-04-23T00:48:17.057Z,23.22
2018-04-23T00:48:49.098Z,23.1
2018-04-23T00:49:21.159Z,23.07
2018-04-23T00:49:53.185Z,23.09
2018-04-23T00:50:25.324Z,23.03
2018-04-23T00:50:57.355Z,23.16
2018-04-23T00:51:29.367Z,23.06
2018-04-23T00:52:01.459Z,23.1
2018-04-23T00:52:33.470Z,23.04
2018-04-23T00:53:05.492Z,23.06
2018-04-23T00:53:37.543Z,23.07
2018-04-23T00:54:09.569Z,23.06
2018-04-23T00:54:41.602Z,23.14
2018-04-23T00:55:13.664Z,23.09
2018-04-23T00:55:45.677Z,23.06
2018-04-23T00:56:17.721Z,23.15
2018-04-23T00:56:49.738Z,23.09
2018-04-23T00:57:21.741Z,23.04
2018-04-23T00:57:53.744Z,23.06
2018-04-23T00:58:25.807Z,23.09
2018-04-23T00:58:57.857Z,23.04
2018-04-23T00:59:29.858Z,23.04
2018-04-23T01:00:01.901Z,23.09
2018-04-23T01:00:33.947Z,23.07
2018-04-23T01:01:05.949Z,23.1
2018-04-23T01:01:37.998Z,23.07
2018-04-23T01:02:10.050Z,23.04
2018-04-23T01:02:42.115Z,23.09
2018-04-23T01:03:14.152Z,23.01
2018-04-23T01:03:46.206Z,23.07
2018-04-23T01:04:18.266Z,23.03
2018-04-23T01:04:50.283Z,23.04
2018-04-23T01:05:22.309Z,22.99
2018-04-23T01:05:54.354Z,23.06
2018-04-23T01:06:26.402Z,23.07
2018-04-23T01:06:58.433Z,23.06
2018-04-23T01:07:30.484Z,23.06
2018-04-23T01:08:02.465Z,23
2018-04-23T01:08:34.480Z,23.04
2018-04-23T01:09:06.444Z,23.03
2018-04-23T01:09:38.515Z,22.97
2018-04-23T01:10:10.553Z,23.01
2018-04-23T01:10:43.478Z,23
2018-04-23T01:11:15.515Z,22.97
2018-04-23T01:11:47.538Z,22.94
2018-04-23T01:12:19.573Z,22.97
2018-04-23T01:12:51.592Z,22.97
2018-04-23T01:13:23.656Z,22.89
2018-04-23T01:13:55.673Z,22.99
2018-04-23T01:14:28.284Z,22.94
2018-04-23T01:15:00.323Z,22.91
2018-04-23T01:15:32.376Z,22.91
2018-04-23T01:16:04.419Z,22.94
2018-04-23T01:16:36.447Z,22.94
2018-04-23T01:17:08.474Z,22.89
2018-04-23T01:17:40.468Z,22.94
2018-04-23T01:18:12.519Z,22.94
2018-04-23T01:18:44.543Z,22.89
2018-04-23T01:19:16.571Z,22.89
2018-04-23T01:19:48.613Z,22.91
2018-04-23T01:20:20.651Z,22.91
2018-04-23T01:20:52.673Z,22.94
2018-04-23T01:21:24.691Z,22.84
2018-04-23T01:21:56.707Z,22.89
2018-04-23T01:22:28.753Z,22.94
2018-04-23T01:23:00.794Z,22.96
2018-04-23T01:23:32.890Z,22.89
2018-04-23T01:24:04.926Z,22.89
2018-04-23T01:24:36.974Z,22.89
2018-04-23T01:25:09.032Z,22.89
2018-04-23T01:25:41.066Z,22.88
2018-04-23T01:26:13.080Z,22.88
2018-04-23T01:26:45.075Z,22.82
2018-04-23T01:27:17.095Z,22.86
2018-04-23T01:27:49.183Z,22.82
2018-04-23T01:28:21.248Z,22.89
2018-04-23T01:28:53.251Z,22.88
2018-04-23T01:29:25.269Z,22.86
2018-04-23T01:29:57.284Z,22.85
2018-04-23T01:30:29.397Z,22.79
2018-04-23T01:31:01.446Z,22.84
2018-04-23T01:31:33.475Z,22.86
2018-04-23T01:32:05.533Z,22.79
2018-04-23T01:32:37.584Z,22.86
2018-04-23T01:33:09.615Z,22.82
2018-04-23T01:33:41.574Z,22.78
2018-04-23T01:34:13.639Z,22.85
2018-04-23T01:34:45.684Z,22.82
2018-04-23T01:35:17.719Z,22.78
2018-04-23T01:35:50.690Z,22.84
2018-04-23T01:36:22.686Z,22.75
2018-04-23T01:36:54.731Z,22.78
2018-04-23T01:37:26.768Z,22.84
2018-04-23T01:37:58.781Z,22.81
2018-04-23T01:38:30.813Z,22.79
2018-04-23T01:39:02.854Z,22.75
2018-04-23T01:39:34.884Z,22.85
2018-04-23T01:40:06.872Z,22.84
2018-04-23T01:40:38.903Z,22.76
2018-04-23T01:41:10.917Z,22.81
2018-04-23T01:41:42.957Z,22.85
2018-04-23T01:42:14.940Z,22.81
2018-04-23T01:42:46.952Z,22.71
2018-04-23T01:43:19.012Z,22.82
2018-04-23T01:43:51.056Z,22.79
2018-04-23T01:44:23.078Z,22.84
2018-04-23T01:44:55.135Z,22.84
2018-04-23T01:45:27.185Z,22.71
2018-04-23T01:45:59.247Z,22.79
2018-04-23T01:46:31.251Z,22.76
2018-04-23T01:47:03.261Z,22.84
2018-04-23T01:47:35.356Z,22.78
2018-04-23T01:48:07.361Z,22.75
2018-04-23T01:48:39.421Z,22.73
2018-04-23T01:49:11.481Z,22.78
2018-04-23T01:49:43.508Z,22.75
2018-04-23T01:50:15.513Z,22.7
2018-04-23T01:50:47.518Z,22.73
2018-04-23T01:51:19.509Z,22.75
2018-04-23T01:51:51.529Z,22.66
2018-04-23T01:52:23.694Z,22.7
2018-04-23T01:52:55.724Z,22.78
2018-04-23T01:53:27.777Z,22.71
2018-04-23T01:53:59.796Z,22.7
2018-04-23T01:54:32.279Z,22.81
2018-04-23T01:55:04.371Z,22.73
2018-04-23T01:55:36.372Z,22.7
2018-04-23T01:56:08.411Z,22.7
2018-04-23T01:56:40.443Z,22.7
2018-04-23T01:57:12.498Z,22.7
2018-04-23T01:57:44.481Z,22.7
2018-04-23T01:58:16.553Z,22.71
2018-04-23T01:58:48.589Z,22.71
2018-04-23T01:59:20.664Z,22.71
2018-04-23T01:59:52.657Z,22.69
2018-04-23T02:00:24.642Z,22.75
2018-04-23T02:00:56.683Z,22.73
2018-04-23T02:01:28.699Z,22.75
2018-04-23T02:02:00.741Z,22.73
2018-04-23T02:02:32.890Z,22.67
2018-04-23T02:03:04.963Z,22.69
2018-04-23T02:03:37.002Z,22.69
2018-04-23T02:04:09.046Z,22.67
2018-04-23T02:04:41.051Z,22.67
2018-04-23T02:05:13.036Z,22.7
2018-04-23T02:05:45.039Z,22.75
2018-04-23T02:06:17.029Z,22.67
2018-04-23T02:06:49.261Z,22.71
2018-04-23T02:07:21.346Z,22.7
2018-04-23T02:07:53.329Z,22.66
2018-04-23T02:08:25.399Z,22.7
2018-04-23T02:08:57.505Z,22.71
2018-04-23T02:09:29.479Z,22.76
2018-04-23T02:10:01.538Z,22.67
2018-04-23T02:10:33.544Z,22.71
2018-04-23T02:11:05.629Z,22.75
2018-04-23T02:11:37.647Z,22.71
2018-04-23T02:12:09.674Z,22.64
2018-04-23T02:12:41.693Z,22.66
2018-04-23T02:13:13.771Z,22.66
2018-04-23T02:13:45.756Z,22.67
2018-04-23T02:14:18.293Z,22.61
2018-04-23T02:14:50.334Z,22.61
2018-04-23T02:15:22.353Z,22.61
2018-04-23T02:15:54.383Z,22.67
2018-04-23T02:16:26.424Z,22.63
2018-04-23T02:16:59.105Z,22.61
2018-04-23T02:17:31.112Z,22.59
2018-04-23T02:18:03.155Z,22.6
2018-04-23T02:18:35.156Z,22.61
2018-04-23T02:19:07.169Z,22.57
2018-04-23T02:19:39.294Z,22.57
2018-04-23T02:20:11.395Z,22.6
2018-04-23T02:20:43.422Z,22.59
2018-04-23T02:21:15.492Z,22.55
2018-04-23T02:21:47.525Z,22.63
2018-04-23T02:22:19.559Z,22.67
2018-04-23T02:22:51.657Z,22.66
2018-04-23T02:23:23.694Z,22.6
2018-04-23T02:23:55.701Z,22.63
2018-04-23T02:24:27.720Z,22.6
2018-04-23T02:24:59.743Z,22.57
2018-04-23T02:25:31.739Z,22.63
2018-04-23T02:26:03.724Z,22.67
2018-04-23T02:26:35.839Z,22.67
2018-04-23T02:27:07.870Z,22.66
2018-04-23T02:27:39.878Z,22.61
2018-04-23T02:28:11.917Z,22.61
2018-04-23T02:28:43.947Z,22.66
2018-04-23T02:29:15.978Z,22.64
2018-04-23T02:29:48.020Z,22.61
2018-04-23T02:30:20.040Z,22.63
2018-04-23T02:30:52.083Z,22.61
2018-04-23T02:31:24.130Z,22.61
2018-04-23T02:31:56.160Z,22.61
2018-04-23T02:32:28.199Z,22.64
2018-04-23T02:33:00.235Z,22.59
2018-04-23T02:33:32.267Z,22.66
2018-04-23T02:34:04.269Z,22.63
2018-04-23T02:34:36.307Z,22.66
2018-04-23T02:35:08.353Z,22.6
2018-04-23T02:35:40.504Z,22.61
2018-04-23T02:36:12.543Z,22.63
2018-04-23T02:36:44.541Z,22.66
2018-04-23T02:37:16.625Z,22.6
2018-04-23T02:37:48.694Z,22.61
2018-04-23T02:38:20.697Z,22.64
2018-04-23T02:38:52.765Z,22.64
2018-04-23T02:39:24.856Z,22.66
2018-04-23T02:39:56.941Z,22.59
2018-04-23T02:40:29.011Z,22.6
2018-04-23T02:41:01.025Z,22.6
2018-04-23T02:41:33.063Z,22.6
2018-04-23T02:42:05.118Z,22.59
2018-04-23T02:42:37.169Z,22.63
2018-04-23T02:43:09.210Z,22.63
2018-04-23T02:43:41.228Z,22.6
2018-04-23T02:44:13.337Z,22.6
2018-04-23T02:44:45.324Z,22.64
2018-04-23T02:45:17.372Z,22.63
2018-04-23T02:45:49.449Z,22.64
2018-04-23T02:46:21.490Z,22.59
2018-04-23T02:46:53.515Z,22.59
2018-04-23T02:47:25.562Z,22.57
2018-04-23T02:47:57.587Z,22.6
2018-04-23T02:48:29.584Z,22.57
2018-04-23T02:49:01.608Z,22.59
2018-04-23T02:49:33.634Z,22.57
2018-04-23T02:50:05.684Z,22.6
2018-04-23T02:50:37.732Z,22.61
2018-04-23T02:51:09.832Z,22.6
2018-04-23T02:51:41.880Z,22.48
2018-04-23T02:52:13.926Z,22.64
2018-04-23T02:52:45.960Z,22.54
2018-04-23T02:53:17.976Z,22.6
2018-04-23T02:53:50.014Z,22.59
2018-04-23T02:54:22.064Z,22.61
2018-04-23T02:54:54.111Z,22.6
2018-04-23T02:55:26.164Z,22.6
2018-04-23T02:55:58.253Z,22.61
2018-04-23T02:56:30.288Z,22.45
2018-04-23T02:57:02.330Z,22.6
2018-04-23T02:57:34.326Z,22.52
2018-04-23T02:58:06.421Z,22.61
2018-04-23T02:58:38.474Z,22.57
2018-04-23T02:59:10.466Z,22.54
2018-04-23T02:59:42.498Z,22.44
2018-04-23T03:00:14.551Z,22.45
2018-04-23T03:00:46.576Z,22.57
2018-04-23T03:01:18.583Z,22.49
2018-04-23T03:01:50.723Z,22.51
2018-04-23T03:02:22.722Z,22.57
2018-04-23T03:02:54.739Z,22.57
2018-04-23T03:03:26.770Z,22.48
2018-04-23T03:03:58.792Z,22.46
2018-04-23T03:04:30.883Z,22.48
2018-04-23T03:05:02.926Z,22.45
2018-04-23T03:05:34.939Z,22.45
2018-04-23T03:06:06.989Z,22.51
2018-04-23T03:06:39.027Z,22.46
2018-04-23T03:07:11.079Z,22.48
2018-04-23T03:07:43.293Z,22.45
2018-04-23T03:08:15.451Z,22.49
2018-04-23T03:08:47.671Z,22.45
2018-04-23T03:09:19.650Z,22.48
2018-04-23T03:09:51.705Z,22.51
2018-04-23T03:10:23.720Z,22.44
2018-04-23T03:10:55.809Z,22.51
2018-04-23T03:11:27.808Z,22.45
2018-04-23T03:11:59.795Z,22.52
2018-04-23T03:12:31.870Z,22.48
2018-04-23T03:13:03.917Z,22.51
2018-04-23T03:13:35.968Z,22.51
2018-04-23T03:14:07.979Z,22.48
2018-04-23T03:14:39.965Z,22.48
2018-04-23T03:15:12.051Z,22.46
2018-04-23T03:15:44.094Z,22.55
2018-04-23T03:16:16.105Z,22.45
2018-04-23T03:16:48.180Z,22.52
2018-04-23T03:17:20.250Z,22.46
2018-04-23T03:17:52.341Z,22.55
2018-04-23T03:18:24.380Z,22.52
2018-04-23T03:18:56.369Z,22.49
2018-04-23T03:19:28.356Z,22.51
2018-04-23T03:20:00.389Z,22.46
2018-04-23T03:20:32.443Z,22.51
2018-04-23T03:21:05.051Z,22.52
2018-04-23T03:21:37.842Z,22.44
2018-04-23T03:22:09.901Z,22.51
2018-04-23T03:22:41.991Z,22.48
2018-04-23T03:23:14.078Z,22.46
2018-04-23T03:23:46.132Z,22.52
2018-04-23T03:24:18.215Z,22.45
2018-04-23T03:24:50.294Z,22.49
2018-04-23T03:25:22.310Z,22.46
2018-04-23T03:25:54.344Z,22.45
2018-04-23T03:26:26.441Z,22.46
2018-04-23T03:26:58.499Z,22.49
2018-04-23T03:27:30.546Z,22.42
2018-04-23T03:28:02.594Z,22.46
2018-04-23T03:28:34.637Z,22.45
2018-04-23T03:29:06.716Z,22.42
2018-04-23T03:29:38.730Z,22.41
2018-04-23T03:30:10.805Z,22.45
2018-04-23T03:30:42.852Z,22.46
2018-04-23T03:31:14.900Z,22.49
2018-04-23T03:31:46.895Z,22.46
2018-04-23T03:32:18.903Z,22.42
2018-04-23T03:32:50.948Z,22.46
2018-04-23T03:33:22.951Z,22.42
2018-04-23T03:33:55.049Z,22.45
2018-04-23T03:34:27.041Z,22.42
2018-04-23T03:34:59.073Z,22.46
2018-04-23T03:35:31.113Z,22.48
2018-04-23T03:36:03.176Z,22.45
2018-04-23T03:36:35.217Z,22.44
2018-04-23T03:37:07.285Z,22.42
2018-04-23T03:37:39.295Z,22.45
2018-04-23T03:38:11.424Z,22.45
2018-04-23T03:38:43.471Z,22.49
2018-04-23T03:39:15.515Z,22.41
2018-04-23T03:39:47.539Z,22.44
2018-04-23T03:40:19.543Z,22.49
2018-04-23T03:40:51.579Z,22.34
2018-04-23T03:41:23.633Z,22.33
2018-04-23T03:41:55.752Z,22.36
2018-04-23T03:42:27.745Z,22.38
2018-04-23T03:42:59.812Z,22.38
2018-04-23T03:43:31.860Z,22.29
2018-04-23T03:44:03.949Z,22.41
2018-04-23T03:44:35.946Z,22.44
2018-04-23T03:45:07.946Z,22.36
2018-04-23T03:45:39.938Z,22.38
2018-04-23T03:46:11.963Z,22.31
2018-04-23T03:46:44.029Z,22.45
2018-04-23T03:47:16.113Z,22.38
2018-04-23T03:47:48.156Z,22.41
2018-04-23T03:48:20.172Z,22.41
2018-04-23T03:48:52.164Z,22.41
2018-04-23T03:49:24.194Z,22.34
2018-04-23T03:49:56.339Z,22.36
2018-04-23T03:50:28.547Z,22.39
2018-04-23T03:51:00.603Z,22.41
2018-04-23T03:51:32.633Z,22.34
2018-04-23T03:52:04.663Z,22.41
2018-04-23T03:52:36.718Z,22.34
2018-04-23T03:53:08.774Z,22.39
2018-04-23T03:53:40.788Z,22.39
2018-04-23T03:54:12.778Z,22.39
2018-04-23T03:54:44.885Z,22.33
2018-04-23T03:55:16.917Z,22.38
2018-04-23T03:55:48.908Z,22.39
2018-04-23T03:56:20.969Z,22.36
2018-04-23T03:56:53.032Z,22.39
2018-04-23T03:57:25.097Z,22.34
2018-04-23T03:57:57.100Z,22.38
2018-04-23T03:58:29.207Z,22.33
2018-04-23T03:59:01.326Z,22.34
2018-04-23T03:59:33.332Z,22.36
2018-04-23T04:00:05.372Z,22.34
2018-04-23T04:00:37.430Z,22.34
2018-04-23T04:01:09.438Z,22.34
2018-04-23T04:01:41.435Z,22.38
2018-04-23T04:02:13.463Z,22.34
2018-04-23T04:02:45.495Z,22.34
2018-04-23T04:03:17.531Z,22.39
2018-04-23T04:03:49.560Z,22.3
2018-04-23T04:04:22.398Z,22.36
2018-04-23T04:04:54.380Z,22.3
2018-04-23T04:05:26.379Z,22.33
2018-04-23T04:05:58.431Z,22.24
2018-04-23T04:06:30.471Z,22.39
2018-04-23T04:07:02.522Z,22.34
2018-04-23T04:07:34.534Z,22.31
2018-04-23T04:08:06.572Z,22.31
2018-04-23T04:08:38.604Z,22.3
2018-04-23T04:09:10.608Z,22.27
2018-04-23T04:09:42.648Z,22.36
2018-04-23T04:10:14.634Z,22.23
2018-04-23T04:10:46.694Z,22.34
2018-04-23T04:11:18.743Z,22.33
2018-04-23T04:11:50.824Z,22.3
2018-04-23T04:12:22.987Z,22.23
2018-04-23T04:12:55.020Z,22.27
2018-04-23T04:13:27.032Z,22.23
2018-04-23T04:13:59.056Z,22.27
2018-04-23T04:14:31.851Z,22.26
2018-04-23T04:15:03.875Z,22.3
2018-04-23T04:15:35.905Z,22.24
2018-04-23T04:16:07.951Z,22.26
2018-04-23T04:16:39.982Z,22.31
2018-04-23T04:17:12.021Z,22.29
2018-04-23T04:17:44.044Z,22.26
2018-04-23T04:18:16.189Z,22.26
2018-04-23T04:18:48.228Z,22.26
2018-04-23T04:19:20.240Z,22.29
2018-04-23T04:19:52.283Z,22.2
2018-04-23T04:20:24.294Z,22.2
2018-04-23T04:20:56.313Z,22.31
2018-04-23T04:21:28.348Z,22.3
2018-04-23T04:22:00.384Z,22.31
2018-04-23T04:22:32.397Z,22.31
2018-04-23T04:23:04.418Z,22.22
2018-04-23T04:23:36.483Z,22.34
2018-04-23T04:24:08.548Z,22.2
2018-04-23T04:24:40.625Z,22.27
2018-04-23T04:25:12.673Z,22.26
2018-04-23T04:25:44.655Z,22.23
2018-04-23T04:26:16.712Z,22.24
2018-04-23T04:26:48.734Z,22.27
2018-04-23T04:27:20.798Z,22.26
2018-04-23T04:27:52.850Z,22.23
2018-04-23T04:28:24.902Z,22.23
2018-04-23T04:28:56.914Z,22.27
2018-04-23T04:29:28.969Z,22.29
2018-04-23T04:30:00.978Z,22.27
2018-04-23T04:30:33.012Z,22.22
2018-04-23T04:31:05.022Z,22.31
2018-04-23T04:31:37.032Z,22.31
2018-04-23T04:32:09.090Z,22.22
2018-04-23T04:32:41.173Z,22.27
2018-04-23T04:33:13.242Z,22.27
2018-04-23T04:33:45.277Z,22.22
2018-04-23T04:34:17.312Z,22.26
2018-04-23T04:34:49.322Z,22.27
2018-04-23T04:35:21.931Z,22.24
2018-04-23T04:35:54.012Z,22.23
2018-04-23T04:36:26.100Z,22.27
2018-04-23T04:36:58.161Z,22.22
2018-04-23T04:37:30.153Z,22.29
2018-04-23T04:38:02.201Z,22.18
2018-04-23T04:38:34.217Z,22.26
2018-04-23T04:39:06.258Z,22.22
2018-04-23T04:39:38.279Z,22.29
2018-04-23T04:40:10.357Z,22.26
2018-04-23T04:40:42.547Z,22.26
2018-04-23T04:41:14.562Z,22.22
2018-04-23T04:41:47.179Z,22.27
2018-04-23T04:42:19.211Z,22.18
2018-04-23T04:42:51.266Z,22.31
2018-04-23T04:43:23.321Z,22.26
2018-04-23T04:43:55.409Z,22.23
2018-04-23T04:44:27.560Z,22.22
2018-04-23T04:44:59.603Z,22.23
2018-04-23T04:45:31.688Z,22.15
2018-04-23T04:46:03.706Z,22.26
2018-04-23T04:46:35.754Z,22.29
2018-04-23T04:47:07.809Z,22.23
2018-04-23T04:47:39.884Z,22.26
2018-04-23T04:48:11.920Z,22.2
2018-04-23T04:48:43.972Z,22.26
2018-04-23T04:49:16.010Z,22.3
2018-04-23T04:49:48.075Z,22.22
2018-04-23T04:50:20.108Z,22.24
2018-04-23T04:50:52.139Z,22.24
2018-04-23T04:51:24.193Z,22.26
2018-04-23T04:51:56.230Z,22.27
2018-04-23T04:52:28.261Z,22.26
2018-04-23T04:53:00.331Z,22.29
2018-04-23T04:53:32.361Z,22.31
2018-04-23T04:54:04.362Z,22.23
2018-04-23T04:54:36.432Z,22.27
2018-04-23T04:55:08.471Z,22.26
2018-04-23T04:55:40.497Z,22.31
2018-04-23T04:56:12.543Z,22.3
2018-04-23T04:56:44.593Z,22.29
2018-04-23T04:57:16.604Z,22.24
2018-04-23T04:57:48.588Z,22.29
2018-04-23T04:58:20.665Z,22.24
2018-04-23T04:58:52.679Z,22.29
2018-04-23T04:59:24.700Z,22.27
2018-04-23T04:59:56.749Z,22.3
2018-04-23T05:00:28.857Z,22.27
2018-04-23T05:01:00.868Z,22.27
2018-04-23T05:01:32.904Z,22.23
2018-04-23T05:02:04.957Z,22.27
2018-04-23T05:02:37.021Z,22.36
2018-04-23T05:03:09.049Z,22.26
2018-04-23T05:03:41.046Z,22.29
2018-04-23T05:04:13.026Z,22.23
2018-04-23T05:04:45.059Z,22.33
2018-04-23T05:05:17.080Z,22.3
2018-04-23T05:05:49.198Z,22.31
2018-04-23T05:06:21.205Z,22.36
2018-04-23T05:06:53.248Z,22.31
2018-04-23T05:07:25.239Z,22.3
2018-04-23T05:07:57.276Z,22.3
2018-04-23T05:08:29.290Z,22.34
2018-04-23T05:09:01.311Z,22.23
2018-04-23T05:09:33.324Z,22.27
2018-04-23T05:10:05.314Z,22.36
2018-04-23T05:10:37.340Z,22.27
2018-04-23T05:11:09.351Z,22.29
2018-04-23T05:11:41.399Z,22.36
2018-04-23T05:12:13.419Z,22.33
2018-04-23T05:12:45.484Z,22.36
2018-04-23T05:13:17.527Z,22.31
2018-04-23T05:13:50.286Z,22.31
2018-04-23T05:14:22.415Z,22.23
2018-04-23T05:14:54.408Z,22.34
2018-04-23T05:15:26.446Z,22.31
2018-04-23T05:15:58.502Z,22.26
2018-04-23T05:16:30.519Z,22.33
2018-04-23T05:17:02.538Z,22.3
2018-04-23T05:17:34.567Z,22.29
2018-04-23T05:18:06.604Z,22.3
2018-04-23T05:18:38.652Z,22.31
2018-04-23T05:19:10.740Z,22.34
2018-04-23T05:19:42.817Z,22.31
2018-04-23T05:20:14.902Z,22.31
2018-04-23T05:20:46.877Z,22.33
2018-04-23T05:21:18.893Z,22.33
2018-04-23T05:21:50.912Z,22.36
2018-04-23T05:22:22.921Z,22.34
2018-04-23T05:22:54.959Z,22.3
2018-04-23T05:23:27.068Z,22.34
2018-04-23T05:23:59.077Z,22.31
2018-04-23T05:24:31.110Z,22.34
2018-04-23T05:25:03.164Z,22.39
2018-04-23T05:25:35.262Z,22.34
2018-04-23T05:26:07.321Z,22.33
2018-04-23T05:26:39.342Z,22.34
2018-04-23T05:27:11.365Z,22.36
2018-04-23T05:27:43.350Z,22.38
2018-04-23T05:28:15.387Z,22.3
2018-04-23T05:28:47.415Z,22.39
2018-04-23T05:29:19.473Z,22.38
2018-04-23T05:29:51.463Z,22.39
2018-04-23T05:30:23.540Z,22.38
2018-04-23T05:30:55.579Z,22.39
2018-04-23T05:31:27.592Z,22.36
2018-04-23T05:31:59.617Z,22.38
2018-04-23T05:32:31.633Z,22.41
2018-04-23T05:33:03.660Z,22.39
2018-04-23T05:33:35.684Z,22.41
2018-04-23T05:34:07.763Z,22.41
2018-04-23T05:34:39.821Z,22.36
2018-04-23T05:35:11.857Z,22.36
2018-04-23T05:35:43.875Z,22.38
2018-04-23T05:36:15.934Z,22.39
2018-04-23T05:36:47.976Z,22.41
2018-04-23T05:37:20.095Z,22.38
2018-04-23T05:37:52.182Z,22.44
2018-04-23T05:38:24.241Z,22.45
2018-04-23T05:38:56.232Z,22.42
2018-04-23T05:39:28.321Z,22.52
2018-04-23T05:40:00.405Z,22.44
2018-04-23T05:40:32.366Z,22.46
2018-04-23T05:41:04.385Z,22.45
2018-04-23T05:41:36.412Z,22.46
2018-04-23T05:42:08.377Z,22.45
2018-04-23T05:42:40.394Z,22.44
2018-04-23T05:43:12.483Z,22.48
2018-04-23T05:43:44.658Z,22.52
2018-04-23T05:44:16.640Z,22.48
2018-04-23T05:44:48.650Z,22.51
2018-04-23T05:45:20.707Z,22.51
2018-04-23T05:45:52.727Z,22.49
2018-04-23T05:46:24.762Z,22.48
2018-04-23T05:46:56.823Z,22.48
2018-04-23T05:47:28.846Z,22.52
2018-04-23T05:48:00.882Z,22.51
2018-04-23T05:48:32.903Z,22.64
2018-04-23T05:49:05.108Z,22.45
2018-04-23T05:49:37.155Z,22.51
2018-04-23T05:50:09.139Z,22.57
2018-04-23T05:50:41.147Z,22.61
2018-04-23T05:51:13.171Z,22.55
2018-04-23T05:51:45.168Z,22.6
2018-04-23T05:52:17.220Z,22.59
2018-04-23T05:52:49.265Z,22.6
2018-04-23T05:53:21.303Z,22.6
2018-04-23T05:53:53.341Z,22.66
2018-04-23T05:54:25.438Z,22.63
2018-04-23T05:54:57.787Z,22.66
2018-04-23T05:55:29.855Z,22.63
2018-04-23T05:56:02.077Z,22.63
2018-04-23T05:56:34.208Z,22.6
2018-04-23T05:57:06.323Z,22.59
2018-04-23T05:57:38.632Z,22.63
2018-04-23T05:58:10.681Z,22.59
2018-04-23T05:58:43.117Z,22.75
2018-04-23T05:59:15.241Z,22.63
2018-04-23T05:59:47.400Z,22.75
2018-04-23T06:00:19.780Z,22.73
2018-04-23T06:00:52.329Z,22.76
2018-04-23T06:01:24.523Z,22.85
2018-04-23T06:01:56.865Z,22.81
2018-04-23T06:02:28.917Z,22.82
2018-04-23T06:03:00.958Z,22.86
2018-04-23T06:03:33.164Z,22.81
2018-04-23T06:04:05.302Z,22.79
2018-04-23T06:04:37.356Z,22.81
2018-04-23T06:05:09.440Z,22.88
2018-04-23T06:05:41.524Z,22.86
2018-04-23T06:06:13.657Z,22.85
2018-04-23T06:06:45.694Z,22.85
2018-04-23T06:07:17.861Z,22.85
2018-04-23T06:07:50.471Z,22.89
2018-04-23T06:08:22.499Z,22.82
2018-04-23T06:08:54.568Z,22.88
2018-04-23T06:09:26.747Z,22.81
2018-04-23T06:09:58.840Z,22.85
2018-04-23T06:10:30.827Z,22.89
2018-04-23T06:11:02.876Z,22.88
2018-04-23T06:11:34.898Z,22.86
2018-04-23T06:12:06.947Z,22.89
2018-04-23T06:12:38.960Z,22.89
2018-04-23T06:13:11.015Z,22.92
2018-04-23T06:13:43.056Z,22.88
2018-04-23T06:14:15.082Z,22.86
2018-04-23T06:14:47.125Z,22.89
2018-04-23T06:15:19.225Z,22.85
2018-04-23T06:15:51.184Z,22.89
2018-04-23T06:16:23.232Z,22.85
2018-04-23T06:16:55.249Z,22.89
2018-04-23T06:17:27.389Z,22.86
2018-04-23T06:17:59.522Z,22.92
2018-04-23T06:18:31.543Z,22.88
2018-04-23T06:19:03.582Z,22.85
2018-04-23T06:19:35.595Z,22.89
2018-04-23T06:20:07.645Z,22.79
2018-04-23T06:20:39.664Z,22.89
2018-04-23T06:21:11.740Z,22.85
2018-04-23T06:21:43.748Z,22.91
2018-04-23T06:22:15.836Z,22.82
2018-04-23T06:22:47.890Z,22.85
2018-04-23T06:23:19.964Z,22.85
2018-04-23T06:23:51.992Z,22.89
2018-04-23T06:24:24.041Z,22.89
2018-04-23T06:24:56.037Z,22.89
2018-04-23T06:25:28.053Z,22.91
2018-04-23T06:26:00.229Z,22.89
2018-04-23T06:26:32.369Z,22.92
2018-04-23T06:27:04.308Z,22.94
2018-04-23T06:27:36.316Z,22.94
2018-04-23T06:28:08.391Z,22.92
2018-04-23T06:28:40.523Z,22.92
2018-04-23T06:29:12.559Z,22.89
2018-04-23T06:29:44.607Z,22.91
2018-04-23T06:30:16.637Z,22.91
2018-04-23T06:30:48.656Z,22.94
2018-04-23T06:31:20.675Z,22.88
2018-04-23T06:31:52.696Z,22.94
2018-04-23T06:32:24.705Z,22.91
2018-04-23T06:32:56.727Z,22.89
2018-04-23T06:33:28.741Z,22.94
2018-04-23T06:34:01.544Z,22.92
2018-04-23T06:34:33.541Z,22.99
2018-04-23T06:35:05.582Z,22.94
2018-04-23T06:35:37.567Z,22.92
2018-04-23T06:36:09.601Z,22.91
2018-04-23T06:36:41.735Z,23.01
2018-04-23T06:37:13.772Z,23
2018-04-23T06:37:45.788Z,22.97
2018-04-23T06:38:17.828Z,23.03
2018-04-23T06:38:49.923Z,23.01
2018-04-23T06:39:21.960Z,23.06
2018-04-23T06:39:54.744Z,23.01
2018-04-23T06:40:26.769Z,23.01
2018-04-23T06:40:58.840Z,23.06
2018-04-23T06:41:30.908Z,23.07
2018-04-23T06:42:03.404Z,23.12
2018-04-23T06:42:35.438Z,23.06
2018-04-23T06:43:07.455Z,23.07
2018-04-23T06:43:39.459Z,23.1
2018-04-23T06:44:11.481Z,23
2018-04-23T06:44:43.491Z,23.06
2018-04-23T06:45:15.533Z,23.1
2018-04-23T06:45:47.589Z,23.07
2018-04-23T06:46:19.660Z,23.04
2018-04-23T06:46:51.708Z,23.14
2018-04-23T06:47:23.741Z,23.07
2018-04-23T06:47:55.767Z,23.1
2018-04-23T06:48:27.803Z,23.06
2018-04-23T06:48:59.833Z,23.04
2018-04-23T06:49:31.852Z,23.1
2018-04-23T06:50:03.910Z,23.09
2018-04-23T06:50:35.974Z,23.07
2018-04-23T06:51:08.061Z,23.12
2018-04-23T06:51:40.095Z,23.15
2018-04-23T06:52:12.132Z,23.06
2018-04-23T06:52:44.197Z,23.1
2018-04-23T06:53:16.257Z,23.06
2018-04-23T06:53:48.313Z,23.18
2018-04-23T06:54:20.319Z,23.16